sensor_id;sensor_type;location;lat;lon;timestamp;P1;durP1;ratioP1;P2;durP2;ratioP2
12760;SDS011;6444;49.742;6.114;2023-08-01T00:00:40;6.20;;;4.30;;
12760;SDS011;6444;49.742;6.114;2023-08-01T00:03:07;6.82;;;4.05;;
12760;SDS011;6444;49.742;6.114;2023-08-01T00:05:33;5.55;;;3.97;;
12760;SDS011;6444;49.742;6.114;2023-08-01T00:08:00;5.00;;;3.50;;
12760;SDS011;6444;49.742;6.114;2023-08-01T00:10:27;5.05;;;3.37;;
12760;SDS011;6444;49.742;6.114;2023-08-01T00:12:53;5.50;;;3.45;;
12760;SDS011;6444;49.742;6.114;2023-08-01T00:15:20;4.72;;;3.10;;
12760;SDS011;6444;49.742;6.114;2023-08-01T00:17:46;4.28;;;2.78;;
12760;SDS011;6444;49.742;6.114;2023-08-01T00:20:13;5.70;;;2.87;;
12760;SDS011;6444;49.742;6.114;2023-08-01T00:22:40;3.17;;;2.80;;
12760;SDS011;6444;49.742;6.114;2023-08-01T00:25:07;4.57;;;2.80;;
12760;SDS011;6444;49.742;6.114;2023-08-01T00:27:34;6.10;;;2.90;;
12760;SDS011;6444;49.742;6.114;2023-08-01T00:30:00;3.85;;;2.28;;
12760;SDS011;6444;49.742;6.114;2023-08-01T00:32:27;3.28;;;2.55;;
12760;SDS011;6444;49.742;6.114;2023-08-01T00:34:54;3.10;;;2.58;;
12760;SDS011;6444;49.742;6.114;2023-08-01T00:37:20;3.33;;;2.20;;
12760;SDS011;6444;49.742;6.114;2023-08-01T00:39:47;2.87;;;1.80;;
12760;SDS011;6444;49.742;6.114;2023-08-01T00:42:14;4.60;;;1.87;;
12760;SDS011;6444;49.742;6.114;2023-08-01T00:44:40;3.55;;;2.15;;
12760;SDS011;6444;49.742;6.114;2023-08-01T00:47:07;2.40;;;1.95;;
12760;SDS011;6444;49.742;6.114;2023-08-01T00:49:34;2.33;;;2.03;;
12760;SDS011;6444;49.742;6.114;2023-08-01T00:52:00;2.47;;;2.08;;
12760;SDS011;6444;49.742;6.114;2023-08-01T00:54:28;3.47;;;2.65;;
12760;SDS011;6444;49.742;6.114;2023-08-01T00:56:54;2.85;;;2.33;;
12760;SDS011;6444;49.742;6.114;2023-08-01T00:59:21;2.53;;;2.33;;
12760;SDS011;6444;49.742;6.114;2023-08-01T01:01:47;3.03;;;2.10;;
12760;SDS011;6444;49.742;6.114;2023-08-01T01:04:15;4.53;;;2.45;;
12760;SDS011;6444;49.742;6.114;2023-08-01T01:06:45;3.03;;;2.28;;
12760;SDS011;6444;49.742;6.114;2023-08-01T01:09:14;2.75;;;2.03;;
12760;SDS011;6444;49.742;6.114;2023-08-01T01:11:40;3.67;;;2.55;;
12760;SDS011;6444;49.742;6.114;2023-08-01T01:14:07;4.05;;;2.37;;
12760;SDS011;6444;49.742;6.114;2023-08-01T01:16:34;2.90;;;2.50;;
12760;SDS011;6444;49.742;6.114;2023-08-01T01:19:00;3.45;;;2.55;;
12760;SDS011;6444;49.742;6.114;2023-08-01T01:21:27;4.25;;;2.78;;
12760;SDS011;6444;49.742;6.114;2023-08-01T01:23:53;4.57;;;3.50;;
12760;SDS011;6444;49.742;6.114;2023-08-01T01:26:21;3.60;;;3.10;;
12760;SDS011;6444;49.742;6.114;2023-08-01T01:28:48;7.35;;;3.50;;
12760;SDS011;6444;49.742;6.114;2023-08-01T01:31:14;4.95;;;3.50;;
12760;SDS011;6444;49.742;6.114;2023-08-01T01:33:41;4.03;;;3.10;;
12760;SDS011;6444;49.742;6.114;2023-08-01T01:36:07;4.32;;;3.45;;
12760;SDS011;6444;49.742;6.114;2023-08-01T01:38:35;3.45;;;3.15;;
12760;SDS011;6444;49.742;6.114;2023-08-01T01:41:01;8.57;;;3.97;;
12760;SDS011;6444;49.742;6.114;2023-08-01T01:43:28;5.87;;;3.10;;
12760;SDS011;6444;49.742;6.114;2023-08-01T01:45:55;4.22;;;3.47;;
12760;SDS011;6444;49.742;6.114;2023-08-01T01:48:21;5.00;;;3.67;;
12760;SDS011;6444;49.742;6.114;2023-08-01T01:50:49;5.68;;;3.80;;
12760;SDS011;6444;49.742;6.114;2023-08-01T01:53:15;3.65;;;2.85;;
12760;SDS011;6444;49.742;6.114;2023-08-01T01:55:42;3.47;;;2.72;;
12760;SDS011;6444;49.742;6.114;2023-08-01T01:58:08;4.10;;;2.97;;
12760;SDS011;6444;49.742;6.114;2023-08-01T02:00:36;3.40;;;2.87;;
12760;SDS011;6444;49.742;6.114;2023-08-01T02:03:02;4.30;;;3.42;;
12760;SDS011;6444;49.742;6.114;2023-08-01T02:05:29;4.37;;;2.70;;
12760;SDS011;6444;49.742;6.114;2023-08-01T02:07:56;3.10;;;2.42;;
12760;SDS011;6444;49.742;6.114;2023-08-01T02:10:22;3.30;;;2.58;;
12760;SDS011;6444;49.742;6.114;2023-08-01T02:12:49;4.82;;;2.15;;
12760;SDS011;6444;49.742;6.114;2023-08-01T02:15:16;2.42;;;2.12;;
12760;SDS011;6444;49.742;6.114;2023-08-01T02:17:42;1.98;;;1.58;;
12760;SDS011;6444;49.742;6.114;2023-08-01T02:20:09;2.45;;;2.10;;
12760;SDS011;6444;49.742;6.114;2023-08-01T02:22:36;2.95;;;2.00;;
12760;SDS011;6444;49.742;6.114;2023-08-01T02:25:02;2.75;;;1.70;;
12760;SDS011;6444;49.742;6.114;2023-08-01T02:27:29;3.15;;;1.42;;
12760;SDS011;6444;49.742;6.114;2023-08-01T02:29:56;2.40;;;1.67;;
12760;SDS011;6444;49.742;6.114;2023-08-01T02:32:22;1.40;;;1.30;;
12760;SDS011;6444;49.742;6.114;2023-08-01T02:34:49;1.70;;;1.53;;
12760;SDS011;6444;49.742;6.114;2023-08-01T02:37:16;1.65;;;1.55;;
12760;SDS011;6444;49.742;6.114;2023-08-01T02:39:42;1.80;;;1.60;;
12760;SDS011;6444;49.742;6.114;2023-08-01T02:42:09;1.30;;;1.20;;
12760;SDS011;6444;49.742;6.114;2023-08-01T02:44:35;1.25;;;1.15;;
12760;SDS011;6444;49.742;6.114;2023-08-01T02:47:03;1.33;;;1.02;;
12760;SDS011;6444;49.742;6.114;2023-08-01T02:49:29;2.03;;;1.30;;
12760;SDS011;6444;49.742;6.114;2023-08-01T02:51:56;1.40;;;1.30;;
12760;SDS011;6444;49.742;6.114;2023-08-01T02:54:23;1.70;;;1.35;;
12760;SDS011;6444;49.742;6.114;2023-08-01T02:56:49;1.50;;;1.10;;
12760;SDS011;6444;49.742;6.114;2023-08-01T02:59:17;1.85;;;1.05;;
12760;SDS011;6444;49.742;6.114;2023-08-01T03:01:46;3.12;;;1.27;;
12760;SDS011;6444;49.742;6.114;2023-08-01T03:04:13;2.67;;;1.60;;
12760;SDS011;6444;49.742;6.114;2023-08-01T03:06:39;2.05;;;1.23;;
12760;SDS011;6444;49.742;6.114;2023-08-01T03:09:06;1.70;;;1.10;;
12760;SDS011;6444;49.742;6.114;2023-08-01T03:11:33;1.65;;;1.12;;
12760;SDS011;6444;49.742;6.114;2023-08-01T03:13:59;2.00;;;0.95;;
12760;SDS011;6444;49.742;6.114;2023-08-01T03:16:27;4.10;;;1.27;;
12760;SDS011;6444;49.742;6.114;2023-08-01T03:18:53;4.18;;;1.40;;
12760;SDS011;6444;49.742;6.114;2023-08-01T03:21:20;1.55;;;1.12;;
12760;SDS011;6444;49.742;6.114;2023-08-01T03:23:46;1.30;;;0.82;;
12760;SDS011;6444;49.742;6.114;2023-08-01T03:26:14;1.10;;;1.00;;
12760;SDS011;6444;49.742;6.114;2023-08-01T03:28:40;1.00;;;0.90;;
12760;SDS011;6444;49.742;6.114;2023-08-01T03:31:07;0.80;;;0.80;;
12760;SDS011;6444;49.742;6.114;2023-08-01T03:33:34;0.80;;;0.75;;
12760;SDS011;6444;49.742;6.114;2023-08-01T03:36:00;0.77;;;0.68;;
12760;SDS011;6444;49.742;6.114;2023-08-01T03:38:28;2.12;;;0.80;;
12760;SDS011;6444;49.742;6.114;2023-08-01T03:40:54;1.77;;;0.77;;
12760;SDS011;6444;49.742;6.114;2023-08-01T03:43:21;1.17;;;0.70;;
12760;SDS011;6444;49.742;6.114;2023-08-01T03:45:48;1.27;;;1.00;;
12760;SDS011;6444;49.742;6.114;2023-08-01T03:48:15;1.15;;;0.77;;
12760;SDS011;6444;49.742;6.114;2023-08-01T03:50:42;0.90;;;0.90;;
12760;SDS011;6444;49.742;6.114;2023-08-01T03:53:08;0.98;;;0.80;;
12760;SDS011;6444;49.742;6.114;2023-08-01T03:55:35;1.17;;;0.90;;
12760;SDS011;6444;49.742;6.114;2023-08-01T03:58:02;0.77;;;0.73;;
12760;SDS011;6444;49.742;6.114;2023-08-01T04:00:29;2.05;;;0.80;;
12760;SDS011;6444;49.742;6.114;2023-08-01T04:02:56;1.08;;;0.70;;
12760;SDS011;6444;49.742;6.114;2023-08-01T04:05:22;1.20;;;0.80;;
12760;SDS011;6444;49.742;6.114;2023-08-01T04:07:49;0.60;;;0.60;;
12760;SDS011;6444;49.742;6.114;2023-08-01T04:10:16;0.75;;;0.62;;
12760;SDS011;6444;49.742;6.114;2023-08-01T04:12:43;1.08;;;0.70;;
12760;SDS011;6444;49.742;6.114;2023-08-01T04:15:10;0.90;;;0.73;;
12760;SDS011;6444;49.742;6.114;2023-08-01T04:17:36;0.85;;;0.77;;
12760;SDS011;6444;49.742;6.114;2023-08-01T04:20:03;0.75;;;0.50;;
12760;SDS011;6444;49.742;6.114;2023-08-01T04:22:29;0.60;;;0.60;;
12760;SDS011;6444;49.742;6.114;2023-08-01T04:24:56;1.05;;;0.55;;
12760;SDS011;6444;49.742;6.114;2023-08-01T04:27:23;0.55;;;0.55;;
12760;SDS011;6444;49.742;6.114;2023-08-01T04:29:49;1.42;;;0.50;;
12760;SDS011;6444;49.742;6.114;2023-08-01T04:32:16;1.02;;;0.50;;
12760;SDS011;6444;49.742;6.114;2023-08-01T04:34:43;0.50;;;0.50;;
12760;SDS011;6444;49.742;6.114;2023-08-01T04:37:10;0.60;;;0.50;;
12760;SDS011;6444;49.742;6.114;2023-08-01T04:39:37;1.23;;;0.50;;
12760;SDS011;6444;49.742;6.114;2023-08-01T04:42:03;0.45;;;0.30;;
12760;SDS011;6444;49.742;6.114;2023-08-01T04:44:30;0.77;;;0.40;;
12760;SDS011;6444;49.742;6.114;2023-08-01T04:46:57;1.48;;;0.40;;
12760;SDS011;6444;49.742;6.114;2023-08-01T04:49:23;0.62;;;0.30;;
12760;SDS011;6444;49.742;6.114;2023-08-01T04:51:50;0.40;;;0.40;;
12760;SDS011;6444;49.742;6.114;2023-08-01T04:54:16;0.40;;;0.40;;
12760;SDS011;6444;49.742;6.114;2023-08-01T04:56:44;0.60;;;0.30;;
12760;SDS011;6444;49.742;6.114;2023-08-01T04:59:10;1.95;;;0.52;;
12760;SDS011;6444;49.742;6.114;2023-08-01T05:01:37;0.67;;;0.60;;
12760;SDS011;6444;49.742;6.114;2023-08-01T05:04:04;1.75;;;0.50;;
12760;SDS011;6444;49.742;6.114;2023-08-01T05:06:30;1.23;;;0.40;;
12760;SDS011;6444;49.742;6.114;2023-08-01T05:08:58;1.15;;;0.55;;
12760;SDS011;6444;49.742;6.114;2023-08-01T05:11:24;2.42;;;0.70;;
12760;SDS011;6444;49.742;6.114;2023-08-01T05:13:51;3.05;;;0.75;;
12760;SDS011;6444;49.742;6.114;2023-08-01T05:16:18;0.90;;;0.90;;
12760;SDS011;6444;49.742;6.114;2023-08-01T05:18:45;1.37;;;1.00;;
12760;SDS011;6444;49.742;6.114;2023-08-01T05:21:12;2.50;;;1.15;;
12760;SDS011;6444;49.742;6.114;2023-08-01T05:23:38;1.15;;;0.90;;
12760;SDS011;6444;49.742;6.114;2023-08-01T05:26:05;2.97;;;1.20;;
12760;SDS011;6444;49.742;6.114;2023-08-01T05:28:31;1.75;;;1.30;;
12760;SDS011;6444;49.742;6.114;2023-08-01T05:30:59;4.50;;;1.33;;
12760;SDS011;6444;49.742;6.114;2023-08-01T05:33:29;2.12;;;1.45;;
12760;SDS011;6444;49.742;6.114;2023-08-01T05:35:55;2.87;;;1.37;;
12760;SDS011;6444;49.742;6.114;2023-08-01T05:38:22;2.42;;;1.87;;
12760;SDS011;6444;49.742;6.114;2023-08-01T05:40:49;2.17;;;1.83;;
12760;SDS011;6444;49.742;6.114;2023-08-01T05:43:15;2.72;;;1.65;;
12760;SDS011;6444;49.742;6.114;2023-08-01T05:45:43;2.20;;;1.67;;
12760;SDS011;6444;49.742;6.114;2023-08-01T05:48:09;2.28;;;1.60;;
12760;SDS011;6444;49.742;6.114;2023-08-01T05:50:36;1.90;;;1.42;;
12760;SDS011;6444;49.742;6.114;2023-08-01T05:53:03;4.28;;;1.65;;
12760;SDS011;6444;49.742;6.114;2023-08-01T05:55:29;2.63;;;1.50;;
12760;SDS011;6444;49.742;6.114;2023-08-01T05:57:56;2.22;;;1.50;;
12760;SDS011;6444;49.742;6.114;2023-08-01T06:00:22;2.30;;;1.50;;
12760;SDS011;6444;49.742;6.114;2023-08-01T06:02:49;1.33;;;1.23;;
12760;SDS011;6444;49.742;6.114;2023-08-01T06:05:16;2.55;;;1.48;;
12760;SDS011;6444;49.742;6.114;2023-08-01T06:07:42;2.20;;;1.20;;
12760;SDS011;6444;49.742;6.114;2023-08-01T06:10:09;1.25;;;1.10;;
12760;SDS011;6444;49.742;6.114;2023-08-01T06:12:36;2.92;;;1.35;;
12760;SDS011;6444;49.742;6.114;2023-08-01T06:15:03;2.50;;;1.23;;
12760;SDS011;6444;49.742;6.114;2023-08-01T06:17:29;2.17;;;1.17;;
12760;SDS011;6444;49.742;6.114;2023-08-01T06:19:56;1.95;;;1.23;;
12760;SDS011;6444;49.742;6.114;2023-08-01T06:22:22;1.67;;;1.02;;
12760;SDS011;6444;49.742;6.114;2023-08-01T06:24:49;2.60;;;1.08;;
12760;SDS011;6444;49.742;6.114;2023-08-01T06:27:15;1.80;;;1.33;;
12760;SDS011;6444;49.742;6.114;2023-08-01T06:29:42;3.87;;;1.60;;
12760;SDS011;6444;49.742;6.114;2023-08-01T06:32:09;4.30;;;1.70;;
12760;SDS011;6444;49.742;6.114;2023-08-01T06:34:35;2.37;;;1.67;;
12760;SDS011;6444;49.742;6.114;2023-08-01T06:37:02;2.37;;;1.62;;
12760;SDS011;6444;49.742;6.114;2023-08-01T06:39:29;2.85;;;1.73;;
12760;SDS011;6444;49.742;6.114;2023-08-01T06:41:55;2.45;;;1.65;;
12760;SDS011;6444;49.742;6.114;2023-08-01T06:44:22;2.25;;;1.55;;
12760;SDS011;6444;49.742;6.114;2023-08-01T06:46:49;2.60;;;2.08;;
12760;SDS011;6444;49.742;6.114;2023-08-01T06:49:15;3.75;;;1.60;;
12760;SDS011;6444;49.742;6.114;2023-08-01T06:51:43;4.70;;;2.05;;
12760;SDS011;6444;49.742;6.114;2023-08-01T06:54:09;4.03;;;2.30;;
12760;SDS011;6444;49.742;6.114;2023-08-01T06:56:36;3.87;;;2.10;;
12760;SDS011;6444;49.742;6.114;2023-08-01T06:59:02;4.12;;;2.10;;
12760;SDS011;6444;49.742;6.114;2023-08-01T07:01:30;4.93;;;1.92;;
12760;SDS011;6444;49.742;6.114;2023-08-01T07:03:56;3.80;;;2.20;;
12760;SDS011;6444;49.742;6.114;2023-08-01T07:06:23;4.57;;;2.22;;
12760;SDS011;6444;49.742;6.114;2023-08-01T07:08:51;3.15;;;1.80;;
12760;SDS011;6444;49.742;6.114;2023-08-01T07:11:17;4.47;;;2.60;;
12760;SDS011;6444;49.742;6.114;2023-08-01T07:13:44;4.35;;;2.22;;
12760;SDS011;6444;49.742;6.114;2023-08-01T07:16:10;4.68;;;2.42;;
12760;SDS011;6444;49.742;6.114;2023-08-01T07:18:37;2.47;;;2.25;;
12760;SDS011;6444;49.742;6.114;2023-08-01T07:21:04;3.53;;;2.45;;
12760;SDS011;6444;49.742;6.114;2023-08-01T07:23:33;3.97;;;2.15;;
12760;SDS011;6444;49.742;6.114;2023-08-01T07:25:58;4.37;;;2.25;;
12760;SDS011;6444;49.742;6.114;2023-08-01T07:28:25;4.75;;;2.70;;
12760;SDS011;6444;49.742;6.114;2023-08-01T07:31:01;4.10;;;2.55;;
12760;SDS011;6444;49.742;6.114;2023-08-01T07:33:24;3.97;;;2.58;;
12760;SDS011;6444;49.742;6.114;2023-08-01T07:35:50;5.37;;;2.87;;
12760;SDS011;6444;49.742;6.114;2023-08-01T07:38:17;3.70;;;2.62;;
12760;SDS011;6444;49.742;6.114;2023-08-01T07:40:44;4.87;;;2.67;;
12760;SDS011;6444;49.742;6.114;2023-08-01T07:43:10;4.35;;;2.80;;
12760;SDS011;6444;49.742;6.114;2023-08-01T07:45:37;4.45;;;2.50;;
12760;SDS011;6444;49.742;6.114;2023-08-01T07:48:04;6.78;;;3.10;;
12760;SDS011;6444;49.742;6.114;2023-08-01T07:50:30;3.37;;;2.55;;
12760;SDS011;6444;49.742;6.114;2023-08-01T07:52:57;4.22;;;2.42;;
12760;SDS011;6444;49.742;6.114;2023-08-01T07:55:24;4.37;;;2.40;;
12760;SDS011;6444;49.742;6.114;2023-08-01T07:57:50;2.83;;;1.90;;
12760;SDS011;6444;49.742;6.114;2023-08-01T08:00:17;4.00;;;2.15;;
12760;SDS011;6444;49.742;6.114;2023-08-01T08:02:44;3.92;;;2.20;;
12760;SDS011;6444;49.742;6.114;2023-08-01T08:05:10;3.85;;;2.17;;
12760;SDS011;6444;49.742;6.114;2023-08-01T08:07:38;3.65;;;2.45;;
12760;SDS011;6444;49.742;6.114;2023-08-01T08:10:05;2.50;;;2.00;;
12760;SDS011;6444;49.742;6.114;2023-08-01T08:12:31;3.72;;;2.28;;
12760;SDS011;6444;49.742;6.114;2023-08-01T08:14:58;3.83;;;2.28;;
12760;SDS011;6444;49.742;6.114;2023-08-01T08:17:24;4.72;;;2.05;;
12760;SDS011;6444;49.742;6.114;2023-08-01T08:19:51;3.90;;;2.10;;
12760;SDS011;6444;49.742;6.114;2023-08-01T08:22:18;3.35;;;2.15;;
12760;SDS011;6444;49.742;6.114;2023-08-01T08:24:44;3.85;;;2.25;;
12760;SDS011;6444;49.742;6.114;2023-08-01T08:27:12;4.82;;;2.17;;
12760;SDS011;6444;49.742;6.114;2023-08-01T08:29:38;3.70;;;2.35;;
12760;SDS011;6444;49.742;6.114;2023-08-01T08:32:05;5.50;;;2.15;;
12760;SDS011;6444;49.742;6.114;2023-08-01T08:34:32;6.78;;;2.62;;
12760;SDS011;6444;49.742;6.114;2023-08-01T08:36:59;4.03;;;2.47;;
12760;SDS011;6444;49.742;6.114;2023-08-01T08:39:25;2.85;;;2.17;;
12760;SDS011;6444;49.742;6.114;2023-08-01T08:41:53;5.65;;;2.40;;
12760;SDS011;6444;49.742;6.114;2023-08-01T08:44:19;4.15;;;2.20;;
12760;SDS011;6444;49.742;6.114;2023-08-01T08:46:49;5.68;;;2.65;;
12760;SDS011;6444;49.742;6.114;2023-08-01T08:49:12;4.55;;;2.58;;
12760;SDS011;6444;49.742;6.114;2023-08-01T08:51:39;5.55;;;2.42;;
12760;SDS011;6444;49.742;6.114;2023-08-01T08:54:06;3.50;;;2.45;;
12760;SDS011;6444;49.742;6.114;2023-08-01T08:56:33;3.78;;;2.40;;
12760;SDS011;6444;49.742;6.114;2023-08-01T08:59:00;3.87;;;2.22;;
12760;SDS011;6444;49.742;6.114;2023-08-01T09:01:26;2.67;;;2.05;;
12760;SDS011;6444;49.742;6.114;2023-08-01T09:03:53;3.22;;;2.20;;
12760;SDS011;6444;49.742;6.114;2023-08-01T09:06:21;4.07;;;2.00;;
12760;SDS011;6444;49.742;6.114;2023-08-01T09:08:50;3.75;;;2.00;;
12760;SDS011;6444;49.742;6.114;2023-08-01T09:11:17;3.40;;;2.03;;
12760;SDS011;6444;49.742;6.114;2023-08-01T09:13:43;6.03;;;2.70;;
12760;SDS011;6444;49.742;6.114;2023-08-01T09:16:10;5.65;;;2.45;;
12760;SDS011;6444;49.742;6.114;2023-08-01T09:18:46;5.68;;;2.97;;
12760;SDS011;6444;49.742;6.114;2023-08-01T09:21:20;2.80;;;2.30;;
12760;SDS011;6444;49.742;6.114;2023-08-01T09:23:48;2.65;;;2.17;;
12760;SDS011;6444;49.742;6.114;2023-08-01T09:26:15;7.50;;;3.65;;
12760;SDS011;6444;49.742;6.114;2023-08-01T09:28:42;3.90;;;1.95;;
12760;SDS011;6444;49.742;6.114;2023-08-01T09:31:09;4.57;;;2.50;;
12760;SDS011;6444;49.742;6.114;2023-08-01T09:33:41;3.30;;;1.80;;
12760;SDS011;6444;49.742;6.114;2023-08-01T09:36:08;3.33;;;2.30;;
12760;SDS011;6444;49.742;6.114;2023-08-01T09:38:34;3.40;;;2.10;;
12760;SDS011;6444;49.742;6.114;2023-08-01T09:41:01;4.30;;;2.15;;
12760;SDS011;6444;49.742;6.114;2023-08-01T09:43:36;5.40;;;2.45;;
12760;SDS011;6444;49.742;6.114;2023-08-01T09:45:59;3.22;;;2.15;;
12760;SDS011;6444;49.742;6.114;2023-08-01T09:48:26;3.80;;;2.28;;
12760;SDS011;6444;49.742;6.114;2023-08-01T09:51:05;2.80;;;2.00;;
12760;SDS011;6444;49.742;6.114;2023-08-01T09:53:34;5.47;;;2.42;;
12760;SDS011;6444;49.742;6.114;2023-08-01T09:56:01;4.93;;;2.12;;
12760;SDS011;6444;49.742;6.114;2023-08-01T09:58:33;5.70;;;2.58;;
12760;SDS011;6444;49.742;6.114;2023-08-01T10:01:00;5.30;;;2.05;;
12760;SDS011;6444;49.742;6.114;2023-08-01T10:03:27;4.70;;;2.37;;
12760;SDS011;6444;49.742;6.114;2023-08-01T10:05:53;4.00;;;2.17;;
12760;SDS011;6444;49.742;6.114;2023-08-01T10:08:20;5.97;;;2.10;;
12760;SDS011;6444;49.742;6.114;2023-08-01T10:10:47;4.85;;;2.28;;
12760;SDS011;6444;49.742;6.114;2023-08-01T10:13:13;5.00;;;2.40;;
12760;SDS011;6444;49.742;6.114;2023-08-01T10:15:40;3.25;;;2.10;;
12760;SDS011;6444;49.742;6.114;2023-08-01T10:18:08;3.53;;;1.92;;
12760;SDS011;6444;49.742;6.114;2023-08-01T10:20:36;3.83;;;2.50;;
12760;SDS011;6444;49.742;6.114;2023-08-01T10:23:00;4.32;;;2.42;;
12760;SDS011;6444;49.742;6.114;2023-08-01T10:25:28;3.53;;;2.40;;
12760;SDS011;6444;49.742;6.114;2023-08-01T10:27:57;5.85;;;2.53;;
12760;SDS011;6444;49.742;6.114;2023-08-01T10:30:27;4.87;;;2.28;;
12760;SDS011;6444;49.742;6.114;2023-08-01T10:32:54;3.70;;;2.28;;
12760;SDS011;6444;49.742;6.114;2023-08-01T10:35:35;4.78;;;2.33;;
12760;SDS011;6444;49.742;6.114;2023-08-01T10:38:04;3.75;;;2.25;;
12760;SDS011;6444;49.742;6.114;2023-08-01T10:40:36;4.57;;;2.53;;
12760;SDS011;6444;49.742;6.114;2023-08-01T10:43:18;4.18;;;2.30;;
12760;SDS011;6444;49.742;6.114;2023-08-01T10:46:00;3.70;;;2.50;;
12760;SDS011;6444;49.742;6.114;2023-08-01T10:48:29;3.42;;;2.30;;
12760;SDS011;6444;49.742;6.114;2023-08-01T10:50:56;4.12;;;1.87;;
12760;SDS011;6444;49.742;6.114;2023-08-01T10:53:23;3.78;;;1.80;;
12760;SDS011;6444;49.742;6.114;2023-08-01T10:55:49;4.53;;;2.22;;
12760;SDS011;6444;49.742;6.114;2023-08-01T10:58:16;4.03;;;2.53;;
12760;SDS011;6444;49.742;6.114;2023-08-01T11:00:43;6.87;;;2.40;;
12760;SDS011;6444;49.742;6.114;2023-08-01T11:03:09;6.05;;;2.10;;
12760;SDS011;6444;49.742;6.114;2023-08-01T11:05:36;2.83;;;1.83;;
12760;SDS011;6444;49.742;6.114;2023-08-01T11:08:03;6.12;;;2.17;;
12760;SDS011;6444;49.742;6.114;2023-08-01T11:10:31;5.82;;;2.42;;
12760;SDS011;6444;49.742;6.114;2023-08-01T11:12:57;6.07;;;2.17;;
12760;SDS011;6444;49.742;6.114;2023-08-01T11:15:23;2.95;;;1.80;;
12760;SDS011;6444;49.742;6.114;2023-08-01T11:17:52;2.62;;;1.85;;
12760;SDS011;6444;49.742;6.114;2023-08-01T11:20:19;4.72;;;2.50;;
12760;SDS011;6444;49.742;6.114;2023-08-01T11:22:49;4.28;;;2.10;;
12760;SDS011;6444;49.742;6.114;2023-08-01T11:25:31;4.57;;;2.25;;
12760;SDS011;6444;49.742;6.114;2023-08-01T11:28:06;3.42;;;1.87;;
12760;SDS011;6444;49.742;6.114;2023-08-01T11:30:32;4.10;;;2.25;;
12760;SDS011;6444;49.742;6.114;2023-08-01T11:32:58;2.65;;;1.70;;
12760;SDS011;6444;49.742;6.114;2023-08-01T11:35:25;3.30;;;1.95;;
12760;SDS011;6444;49.742;6.114;2023-08-01T11:37:52;3.25;;;1.65;;
12760;SDS011;6444;49.742;6.114;2023-08-01T11:40:18;4.05;;;1.80;;
12760;SDS011;6444;49.742;6.114;2023-08-01T11:42:48;2.62;;;1.58;;
12760;SDS011;6444;49.742;6.114;2023-08-01T11:45:14;3.85;;;1.92;;
12760;SDS011;6444;49.742;6.114;2023-08-01T11:47:45;3.55;;;1.83;;
12760;SDS011;6444;49.742;6.114;2023-08-01T11:50:11;2.65;;;1.70;;
12760;SDS011;6444;49.742;6.114;2023-08-01T11:52:37;3.22;;;1.67;;
12760;SDS011;6444;49.742;6.114;2023-08-01T11:55:04;3.47;;;1.92;;
12760;SDS011;6444;49.742;6.114;2023-08-01T11:57:31;3.95;;;1.90;;
12760;SDS011;6444;49.742;6.114;2023-08-01T11:59:57;5.35;;;2.42;;
12760;SDS011;6444;49.742;6.114;2023-08-01T12:02:25;2.70;;;1.67;;
12760;SDS011;6444;49.742;6.114;2023-08-01T12:04:51;4.53;;;2.00;;
12760;SDS011;6444;49.742;6.114;2023-08-01T12:07:18;2.95;;;1.60;;
12760;SDS011;6444;49.742;6.114;2023-08-01T12:09:54;2.15;;;1.65;;
12760;SDS011;6444;49.742;6.114;2023-08-01T12:12:11;5.72;;;2.00;;
12760;SDS011;6444;49.742;6.114;2023-08-01T12:14:41;3.67;;;1.90;;
12760;SDS011;6444;49.742;6.114;2023-08-01T12:17:07;2.70;;;1.87;;
12760;SDS011;6444;49.742;6.114;2023-08-01T12:19:34;4.00;;;1.50;;
12760;SDS011;6444;49.742;6.114;2023-08-01T12:22:01;3.37;;;1.52;;
12760;SDS011;6444;49.742;6.114;2023-08-01T12:24:28;3.45;;;1.98;;
12760;SDS011;6444;49.742;6.114;2023-08-01T12:26:55;3.10;;;1.33;;
12760;SDS011;6444;49.742;6.114;2023-08-01T12:29:21;4.47;;;1.70;;
12760;SDS011;6444;49.742;6.114;2023-08-01T12:31:49;3.05;;;1.60;;
12760;SDS011;6444;49.742;6.114;2023-08-01T12:34:15;2.22;;;1.60;;
12760;SDS011;6444;49.742;6.114;2023-08-01T12:36:42;3.75;;;1.75;;
12760;SDS011;6444;49.742;6.114;2023-08-01T12:39:08;3.75;;;1.90;;
12760;SDS011;6444;49.742;6.114;2023-08-01T12:41:35;4.45;;;1.90;;
12760;SDS011;6444;49.742;6.114;2023-08-01T12:44:02;3.87;;;1.80;;
12760;SDS011;6444;49.742;6.114;2023-08-01T12:46:28;4.62;;;2.05;;
12760;SDS011;6444;49.742;6.114;2023-08-01T12:48:55;7.43;;;2.50;;
12760;SDS011;6444;49.742;6.114;2023-08-01T12:51:22;3.62;;;2.00;;
12760;SDS011;6444;49.742;6.114;2023-08-01T12:53:48;5.18;;;1.98;;
12760;SDS011;6444;49.742;6.114;2023-08-01T12:56:15;5.05;;;2.10;;
12760;SDS011;6444;49.742;6.114;2023-08-01T12:58:41;4.50;;;1.65;;
12760;SDS011;6444;49.742;6.114;2023-08-01T13:01:08;3.92;;;1.60;;
12760;SDS011;6444;49.742;6.114;2023-08-01T13:03:35;4.25;;;1.40;;
12760;SDS011;6444;49.742;6.114;2023-08-01T13:06:01;5.87;;;1.52;;
12760;SDS011;6444;49.742;6.114;2023-08-01T13:08:29;3.78;;;1.35;;
12760;SDS011;6444;49.742;6.114;2023-08-01T13:10:56;1.87;;;1.25;;
12760;SDS011;6444;49.742;6.114;2023-08-01T13:13:22;2.12;;;1.20;;
12760;SDS011;6444;49.742;6.114;2023-08-01T13:15:49;2.78;;;1.20;;
12760;SDS011;6444;49.742;6.114;2023-08-01T13:18:15;3.85;;;1.15;;
12760;SDS011;6444;49.742;6.114;2023-08-01T13:20:43;4.57;;;1.00;;
12760;SDS011;6444;49.742;6.114;2023-08-01T13:23:09;1.65;;;1.00;;
12760;SDS011;6444;49.742;6.114;2023-08-01T13:25:39;3.03;;;1.15;;
12760;SDS011;6444;49.742;6.114;2023-08-01T13:28:05;2.40;;;1.20;;
12760;SDS011;6444;49.742;6.114;2023-08-01T13:30:32;2.05;;;1.20;;
12760;SDS011;6444;49.742;6.114;2023-08-01T13:32:59;3.20;;;1.00;;
12760;SDS011;6444;49.742;6.114;2023-08-01T13:35:25;2.40;;;1.10;;
12760;SDS011;6444;49.742;6.114;2023-08-01T13:37:52;1.70;;;1.08;;
12760;SDS011;6444;49.742;6.114;2023-08-01T13:40:18;2.95;;;1.20;;
12760;SDS011;6444;49.742;6.114;2023-08-01T13:42:45;3.28;;;1.15;;
12760;SDS011;6444;49.742;6.114;2023-08-01T13:45:12;2.42;;;1.30;;
12760;SDS011;6444;49.742;6.114;2023-08-01T13:47:38;3.15;;;1.40;;
12760;SDS011;6444;49.742;6.114;2023-08-01T13:50:05;2.03;;;1.23;;
12760;SDS011;6444;49.742;6.114;2023-08-01T13:52:32;4.28;;;1.25;;
12760;SDS011;6444;49.742;6.114;2023-08-01T13:54:58;4.30;;;1.30;;
12760;SDS011;6444;49.742;6.114;2023-08-01T13:57:25;2.78;;;1.60;;
12760;SDS011;6444;49.742;6.114;2023-08-01T13:59:52;2.33;;;1.42;;
12760;SDS011;6444;49.742;6.114;2023-08-01T14:02:18;3.10;;;1.50;;
12760;SDS011;6444;49.742;6.114;2023-08-01T14:04:45;3.25;;;1.58;;
12760;SDS011;6444;49.742;6.114;2023-08-01T14:07:11;2.08;;;1.42;;
12760;SDS011;6444;49.742;6.114;2023-08-01T14:09:38;3.67;;;1.50;;
12760;SDS011;6444;49.742;6.114;2023-08-01T14:12:05;5.35;;;1.70;;
12760;SDS011;6444;49.742;6.114;2023-08-01T14:14:32;2.75;;;1.50;;
12760;SDS011;6444;49.742;6.114;2023-08-01T14:16:58;3.55;;;1.42;;
12760;SDS011;6444;49.742;6.114;2023-08-01T14:19:25;4.70;;;1.90;;
12760;SDS011;6444;49.742;6.114;2023-08-01T14:21:52;2.47;;;1.80;;
12760;SDS011;6444;49.742;6.114;2023-08-01T14:24:19;3.70;;;2.12;;
12760;SDS011;6444;49.742;6.114;2023-08-01T14:26:46;4.50;;;1.62;;
12760;SDS011;6444;49.742;6.114;2023-08-01T14:29:12;4.87;;;1.60;;
12760;SDS011;6444;49.742;6.114;2023-08-01T14:31:39;9.45;;;2.47;;
12760;SDS011;6444;49.742;6.114;2023-08-01T14:34:06;3.95;;;1.92;;
12760;SDS011;6444;49.742;6.114;2023-08-01T14:36:32;3.58;;;1.65;;
12760;SDS011;6444;49.742;6.114;2023-08-01T14:39:00;11.52;;;2.12;;
12760;SDS011;6444;49.742;6.114;2023-08-01T14:41:26;6.68;;;1.80;;
12760;SDS011;6444;49.742;6.114;2023-08-01T14:43:53;3.78;;;2.33;;
12760;SDS011;6444;49.742;6.114;2023-08-01T14:46:19;4.45;;;1.80;;
12760;SDS011;6444;49.742;6.114;2023-08-01T14:48:46;4.15;;;2.25;;
12760;SDS011;6444;49.742;6.114;2023-08-01T14:51:16;5.20;;;2.28;;
12760;SDS011;6444;49.742;6.114;2023-08-01T14:53:42;5.72;;;2.30;;
12760;SDS011;6444;49.742;6.114;2023-08-01T14:56:09;6.35;;;2.50;;
12760;SDS011;6444;49.742;6.114;2023-08-01T14:58:36;5.82;;;2.25;;